Pagrindinis puslapis
METAR-TAF:

METAR-TAF

Oro uostai :

Nuakšotas, Mauritanija

platuma: 18-18-36N, ilguma: 015-58-11W, Aukštis: 3 m

Dabartinis oras

Ataskaita buvo paskelbta 32 minutes, ne 22:00 UTC
Vėjas 11 kt iš Šiaurės/Šiaurės Vakarų
Temperatūra 21°C
Drėgmė 78%
Slėgis 1011 hPa
Matomumas: 8000 m

METAR: GQNO 212200Z 33011KT 8000 NSC 21/17 Q1011 NOSIG

Laikas: 22:32 (22:32 UTC)

Prognozė

Ataskaita buvo paskelbta 5 valandos ir 32 minutes, ne 17:00 UTC
Prognozė galioja nuo 21 metu 18 UTC su 22 metu 24 UTC
Vėjas 12 kt iš Šiaurės/Šiaurės Vakarų
Matomumas: 7000 m
Tikimybė 40% :
Laikinai
nuo 22 metu 02 UTC su 22 metu 10 UTC
Matomumas: 3500 m
Su prošvaistėmis ne aukštis 900 ft
rūkana

TAF: GQNO 211700Z 2118/2224 34012KT 7000 NSC PROB40 TEMPO 2202/2210 3500 BR BKN009

Orai ataskaitas ir orų prognozės (METAR, TAF).

turimą stotys yra geltonos ir raudonos taškus žemėlapyje.

Perkelti pele per norėdami pamatyti stoties vardą.

Tada spustelėkite, norėdami matyti oro stebėjimo ir prognozės.

Norėdami pakeisti žemėlapį: spustelėkite ant žalios mygtukų su juodo kryžiaus žemyn,; žalią mygtuką su brūkšneliu, jei norite nutolinti; arba žalių rodyklių gretimoms žemėlapius.


METAR-TAF: